Time;durP1;ratioP1;P1;durP2;ratioP2;P2;SDS_P1;SDS_P2;PMS_P1;PMS_P2;Temp;Humidity;BMP_temperature;BMP_pressure;BME280_temperature;BME280_humidity;BME280_pressure;Samples;Min_cycle;Max_cycle;Signal;HPM_P1;HPM_P2
2023/08/26 00:01:29;;;;;;;;;;;24.20;65.90;;;;;;8503541;27;19911;-52
2023/08/26 00:05:29;;;;;;;;;;;24.20;65.80;;;;;;8502420;27;19922;-52
2023/08/26 00:09:30;;;;;;;;;;;24.20;65.80;;;;;;8483823;27;20002;-51
2023/08/26 00:13:30;;;;;;;;;;;24.20;65.90;;;;;;8502697;27;19912;-51
2023/08/26 00:17:32;;;;;;;;;;;24.20;65.90;;;;;;8482734;27;19934;-52
2023/08/26 00:21:32;;;;;;;;;;;24.20;66.00;;;;;;8502369;27;20360;-53
2023/08/26 00:25:33;;;;;;;;;;;24.20;66.00;;;;;;8501128;27;20329;-51
2023/08/26 00:29:33;;;;;;;;;;;24.20;66.00;;;;;;8483428;27;19916;-51
2023/08/26 00:33:34;;;;;;;;;;;24.20;66.00;;;;;;8500455;27;19917;-52
2023/08/26 00:37:34;;;;;;;;;;;24.20;66.00;;;;;;8501492;27;19908;-52
2023/08/26 00:41:35;;;;;;;;;;;24.20;66.00;;;;;;8500334;27;19912;-52
2023/08/26 00:45:45;;;;;;;;;;;24.20;66.00;;;;;;8501324;27;19915;-52
2023/08/26 00:49:45;;;;;;;;;;;24.20;66.00;;;;;;8501085;27;19916;-50
2023/08/26 00:53:46;;;;;;;;;;;24.20;66.00;;;;;;8482564;27;19918;-51
2023/08/26 00:57:47;;;;;;;;;;;24.20;66.00;;;;;;8501214;27;19908;-53
2023/08/26 01:01:48;;;;;;;;;;;24.20;66.00;;;;;;8499764;27;20002;-50
2023/08/26 01:05:48;;;;;;;;;;;24.20;66.80;;;;;;8482289;27;19915;-52
2023/08/26 01:09:49;;;;;;;;;;;24.20;66.00;;;;;;8499322;27;20037;-52
2023/08/26 01:13:52;;;;;;;;;;;24.20;66.00;;;;;;8500690;27;19976;-52
2023/08/26 01:17:53;;;;;;;;;;;24.20;66.00;;;;;;8498923;27;19920;-52
2023/08/26 01:21:56;;;;;;;;;;;24.20;66.00;;;;;;8500337;27;19918;-52
2023/08/26 01:25:58;;;;;;;;;;;24.20;66.00;;;;;;8499947;27;20002;-50
2023/08/26 01:29:58;;;;;;;;;;;24.20;66.00;;;;;;8499170;27;20435;-50
2023/08/26 01:34:17;;;;;;;;;;;24.20;66.10;;;;;;8499885;27;20284;-52
2023/08/26 01:38:17;;;;;;;;;;;24.20;66.10;;;;;;8498975;27;19915;-51
2023/08/26 01:42:19;;;;;;;;;;;24.20;66.00;;;;;;8499464;27;19943;-52
2023/08/26 01:46:32;;;;;;;;;;;24.20;66.00;;;;;;8498283;27;20002;-52
2023/08/26 01:50:33;;;;;;;;;;;24.20;66.10;;;;;;8498229;27;19907;-51
2023/08/26 01:54:33;;;;;;;;;;;24.20;66.00;;;;;;8498409;27;19918;-51
2023/08/26 01:58:34;;;;;;;;;;;24.20;66.00;;;;;;8498360;27;19919;-51
2023/08/26 02:02:34;;;;;;;;;;;24.20;66.00;;;;;;8498057;27;19918;-50
2023/08/26 02:06:37;;;;;;;;;;;24.20;66.10;;;;;;8497318;27;20308;-52
2023/08/26 02:10:38;;;;;;;;;;;24.20;66.00;;;;;;8499199;27;19947;-51
2023/08/26 02:14:38;;;;;;;;;;;24.20;66.00;;;;;;8497305;27;19918;-51
2023/08/26 02:18:39;;;;;;;;;;;24.20;66.10;;;;;;8498720;27;19945;-50
2023/08/26 02:22:39;;;;;;;;;;;24.20;66.00;;;;;;8496937;27;19911;-52
2023/08/26 02:26:40;;;;;;;;;;;24.20;66.00;;;;;;8498581;27;19911;-51
2023/08/26 02:30:40;;;;;;;;;;;24.20;66.10;;;;;;8497346;27;19980;-50
2023/08/26 02:34:41;;;;;;;;;;;24.20;66.00;;;;;;8496978;27;19943;-50
2023/08/26 02:38:41;;;;;;;;;;;24.20;66.00;;;;;;8512894;27;19916;-52
2023/08/26 02:42:42;;;;;;;;;;;24.10;65.90;;;;;;8496131;27;20435;-52
2023/08/26 02:46:42;;;;;;;;;;;24.20;66.00;;;;;;8498222;27;19962;-50
2023/08/26 02:50:43;;;;;;;;;;;24.20;66.10;;;;;;8496869;27;19911;-53
2023/08/26 02:54:43;;;;;;;;;;;24.20;66.10;;;;;;8497668;27;19911;-52
2023/08/26 02:58:44;;;;;;;;;;;24.20;66.10;;;;;;8512336;27;19961;-50
2023/08/26 03:02:44;;;;;;;;;;;24.20;66.00;;;;;;8496544;27;19911;-51
2023/08/26 03:06:45;;;;;;;;;;;24.10;66.00;;;;;;8495944;28;20346;-51
2023/08/26 03:11:04;;;;;;;;;;;24.10;66.00;;;;;;8497265;28;19945;-50
2023/08/26 03:15:05;;;;;;;;;;;24.10;66.00;;;;;;8497009;28;19907;-50
2023/08/26 03:19:05;;;;;;;;;;;24.20;66.00;;;;;;8495780;28;19966;-51
2023/08/26 03:23:06;;;;;;;;;;;24.20;66.00;;;;;;8497596;28;19998;-52
2023/08/26 03:27:06;;;;;;;;;;;24.10;65.90;;;;;;8496062;27;20369;-52
2023/08/26 03:31:07;;;;;;;;;;;24.10;65.80;;;;;;8497004;28;19912;-49
2023/08/26 03:35:08;;;;;;;;;;;24.20;65.90;;;;;;8495575;28;20334;-52
2023/08/26 03:39:08;;;;;;;;;;;24.20;65.90;;;;;;8496700;28;19919;-51
2023/08/26 03:43:09;;;;;;;;;;;24.10;65.80;;;;;;8495462;28;20403;-50
2023/08/26 03:47:10;;;;;;;;;;;24.10;65.80;;;;;;8496744;28;19971;-50
2023/08/26 03:51:10;;;;;;;;;;;24.10;65.80;;;;;;8495871;28;19964;-52
2023/08/26 03:55:12;;;;;;;;;;;24.20;65.80;;;;;;8496263;27;20549;-52
2023/08/26 03:59:12;;;;;;;;;;;24.20;65.80;;;;;;8496323;28;20322;-51
2023/08/26 04:03:13;;;;;;;;;;;24.10;65.80;;;;;;8495462;28;20333;-51
2023/08/26 04:07:13;;;;;;;;;;;24.10;65.70;;;;;;8496406;28;19926;-52
2023/08/26 04:11:16;;;;;;;;;;;24.20;65.80;;;;;;8495208;28;19934;-51
2023/08/26 04:15:17;;;;;;;;;;;24.20;65.70;;;;;;8500757;27;19942;-51
2023/08/26 04:19:18;;;;;;;;;;;24.10;65.60;;;;;;8482615;27;19919;-52
2023/08/26 04:23:19;;;;;;;;;;;24.20;65.70;;;;;;8502325;27;19919;-52
2023/08/26 04:27:19;;;;;;;;;;;24.10;65.70;;;;;;8501740;27;20438;-49
2023/08/26 04:31:20;;;;;;;;;;;24.10;65.70;;;;;;8501749;27;19912;-52
2023/08/26 04:35:20;;;;;;;;;;;24.10;65.70;;;;;;8501213;27;19950;-52
2023/08/26 04:39:22;;;;;;;;;;;24.10;65.70;;;;;;8501170;27;19912;-51
2023/08/26 04:43:22;;;;;;;;;;;24.10;65.70;;;;;;8501523;27;20376;-53
2023/08/26 04:47:25;;;;;;;;;;;24.10;65.70;;;;;;8500177;27;20006;-52
2023/08/26 04:51:26;;;;;;;;;;;24.10;65.70;;;;;;8501393;27;19918;-49
2023/08/26 04:55:26;;;;;;;;;;;24.10;65.70;;;;;;8500310;27;19912;-51
2023/08/26 04:59:27;;;;;;;;;;;24.10;65.70;;;;;;8501040;27;19907;-51
2023/08/26 05:03:27;;;;;;;;;;;24.10;65.60;;;;;;8499815;27;20626;-51
2023/08/26 05:07:28;;;;;;;;;;;24.10;65.70;;;;;;8500763;27;20014;-52
2023/08/26 05:11:28;;;;;;;;;;;24.10;65.60;;;;;;8499927;27;19912;-50
2023/08/26 05:15:29;;;;;;;;;;;24.10;65.60;;;;;;8499909;27;19912;-52
2023/08/26 05:19:30;;;;;;;;;;;24.10;65.60;;;;;;8500362;27;19924;-51
2023/08/26 05:23:31;;;;;;;;;;;24.10;65.50;;;;;;8499647;27;19919;-52
2023/08/26 05:27:31;;;;;;;;;;;24.10;65.50;;;;;;8499607;27;19912;-51
2023/08/26 05:31:32;;;;;;;;;;;24.10;65.50;;;;;;8498743;27;19915;-52
2023/08/26 05:35:33;;;;;;;;;;;24.10;65.50;;;;;;8499908;27;19964;-51
2023/08/26 05:39:33;;;;;;;;;;;24.10;65.50;;;;;;8498494;27;20380;-50
2023/08/26 05:43:34;;;;;;;;;;;24.10;65.50;;;;;;8499781;27;20329;-52
2023/08/26 05:47:35;;;;;;;;;;;24.10;65.50;;;;;;8498087;27;19922;-51
2023/08/26 05:51:35;;;;;;;;;;;24.10;65.50;;;;;;8499286;27;20284;-52
2023/08/26 05:55:36;;;;;;;;;;;24.10;65.50;;;;;;8463809;27;19912;-52
2023/08/26 05:59:37;;;;;;;;;;;24.10;65.40;;;;;;8498547;27;19961;-50
2023/08/26 06:03:38;;;;;;;;;;;24.10;65.40;;;;;;8498669;27;19912;-51
2023/08/26 06:07:38;;;;;;;;;;;24.10;65.50;;;;;;8497935;27;20329;-52
2023/08/26 06:11:39;;;;;;;;;;;24.10;65.50;;;;;;8498634;27;20660;-49
2023/08/26 06:15:39;;;;;;;;;;;24.10;65.50;;;;;;8497394;27;20289;-50
2023/08/26 06:19:40;;;;;;;;;;;24.10;65.50;;;;;;8498373;27;19931;-50
2023/08/26 06:23:40;;;;;;;;;;;24.10;65.50;;;;;;8497091;27;20293;-52
2023/08/26 06:27:41;;;;;;;;;;;24.10;65.40;;;;;;8498408;27;19918;-52
2023/08/26 06:31:42;;;;;;;;;;;24.10;65.40;;;;;;8496950;27;19915;-52
2023/08/26 06:35:46;;;;;;;;;;;24.10;65.40;;;;;;8497867;27;19919;-52
2023/08/26 06:39:47;;;;;;;;;;;24.10;65.40;;;;;;8497259;27;19907;-51
2023/08/26 06:43:47;;;;;;;;;;;24.10;65.40;;;;;;8497094;27;19962;-52
2023/08/26 06:47:48;;;;;;;;;;;24.10;65.40;;;;;;8497737;27;19916;-51
2023/08/26 06:51:48;;;;;;;;;;;24.10;65.40;;;;;;8496404;27;20284;-52
2023/08/26 06:55:50;;;;;;;;;;;24.10;65.40;;;;;;8497771;27;19922;-50
2023/08/26 06:59:51;;;;;;;;;;;24.10;65.30;;;;;;8496119;27;19965;-51
2023/08/26 07:03:53;;;;;;;;;;;24.10;65.20;;;;;;8496939;27;19919;-51
2023/08/26 07:07:53;;;;;;;;;;;24.10;65.20;;;;;;8495650;28;19922;-53
2023/08/26 07:11:54;;;;;;;;;;;24.10;65.10;;;;;;8496200;28;19911;-52
2023/08/26 07:15:54;;;;;;;;;;;24.10;65.10;;;;;;8477318;28;19918;-51
2023/08/26 07:19:56;;;;;;;;;;;24.10;65.10;;;;;;8498571;28;19947;-51
2023/08/26 07:23:57;;;;;;;;;;;24.10;65.00;;;;;;8496707;28;19911;-52
2023/08/26 07:27:57;;;;;;;;;;;24.10;65.00;;;;;;8478121;28;19984;-53
2023/08/26 07:31:58;;;;;;;;;;;24.10;65.00;;;;;;8497318;28;19966;-51
2023/08/26 07:36:16;;;;;;;;;;;24.10;64.90;;;;;;8495777;28;19911;-52
2023/08/26 07:40:17;;;;;;;;;;;24.10;64.90;;;;;;8496664;28;19907;-50
2023/08/26 07:44:17;;;;;;;;;;;24.10;64.80;;;;;;8495788;28;19914;-51
2023/08/26 07:48:18;;;;;;;;;;;24.10;64.80;;;;;;8498420;27;19912;-51
2023/08/26 07:52:18;;;;;;;;;;;24.10;64.80;;;;;;8502925;27;19908;-50
2023/08/26 07:56:19;;;;;;;;;;;24.10;64.80;;;;;;8503171;27;20014;-52
2023/08/26 08:00:19;;;;;;;;;;;24.10;64.90;;;;;;8502318;27;19911;-51
2023/08/26 08:04:20;;;;;;;;;;;24.00;64.80;;;;;;8502524;27;20432;-50
2023/08/26 08:08:21;;;;;;;;;;;24.10;64.80;;;;;;8503129;27;19912;-51
2023/08/26 08:12:21;;;;;;;;;;;24.00;64.70;;;;;;8501463;27;20517;-53
2023/08/26 08:16:22;;;;;;;;;;;24.00;64.70;;;;;;8502657;27;19924;-52
2023/08/26 08:20:22;;;;;;;;;;;24.10;64.70;;;;;;8500832;27;19911;-52
2023/08/26 08:24:23;;;;;;;;;;;24.00;64.60;;;;;;8483975;27;20330;-50
2023/08/26 08:28:23;;;;;;;;;;;24.10;64.60;;;;;;8500896;27;19912;-50
2023/08/26 08:32:24;;;;;;;;;;;24.00;64.40;;;;;;8502021;27;19911;-51
2023/08/26 08:36:24;;;;;;;;;;;24.00;64.50;;;;;;8501270;27;19911;-50
2023/08/26 08:40:25;;;;;;;;;;;24.10;64.50;;;;;;8500938;27;20010;-50
2023/08/26 08:44:26;;;;;;;;;;;24.10;64.40;;;;;;8500771;27;19915;-51
2023/08/26 08:48:28;;;;;;;;;;;24.00;64.40;;;;;;8501004;27;20395;-51
2023/08/26 08:52:28;;;;;;;;;;;24.00;64.30;;;;;;8501254;27;19911;-51
2023/08/26 08:56:30;;;;;;;;;;;24.00;64.30;;;;;;8500245;27;19907;-51
2023/08/26 09:00:31;;;;;;;;;;;24.00;64.30;;;;;;8501152;27;19907;-52
2023/08/26 09:04:32;;;;;;;;;;;24.00;64.20;;;;;;8499561;27;20392;-52
2023/08/26 09:08:32;;;;;;;;;;;24.00;64.20;;;;;;8500818;27;19927;-52
2023/08/26 09:12:33;;;;;;;;;;;24.00;64.20;;;;;;8499470;27;19911;-52
2023/08/26 09:16:34;;;;;;;;;;;24.00;64.30;;;;;;8500321;27;19970;-51
2023/08/26 09:20:37;;;;;;;;;;;24.00;64.20;;;;;;8481513;27;20006;-51
2023/08/26 09:24:41;;;;;;;;;;;24.00;64.20;;;;;;8499940;27;19912;-52
2023/08/26 09:28:47;;;;;;;;;;;24.00;64.20;;;;;;8481747;27;19908;-50
2023/08/26 09:32:49;;;;;;;;;;;24.00;64.10;;;;;;8498660;27;19931;-50
2023/08/26 09:36:50;;;;;;;;;;;24.00;64.00;;;;;;8481544;27;19918;-52
2023/08/26 09:40:57;;;;;;;;;;;24.10;64.10;;;;;;8498478;27;19914;-52
2023/08/26 09:44:58;;;;;;;;;;;24.00;64.00;;;;;;8499630;27;19915;-51
2023/08/26 09:48:58;;;;;;;;;;;24.00;64.00;;;;;;8498602;27;19933;-50
2023/08/26 09:52:59;;;;;;;;;;;24.00;63.90;;;;;;8499246;27;19911;-52
2023/08/26 09:56:59;;;;;;;;;;;24.00;63.90;;;;;;8521115;27;19911;-52
2023/08/26 10:01:01;;;;;;;;;;;24.00;63.90;;;;;;8514362;27;19942;-53
2023/08/26 10:05:05;;;;;;;;;;;24.00;63.90;;;;;;8533638;27;19980;-52
2023/08/26 10:09:14;;;;;;;;;;;24.00;63.80;;;;;;8531849;27;19907;-51
2023/08/26 10:13:16;;;;;;;;;;;24.00;63.80;;;;;;8532778;27;19951;-51
2023/08/26 10:17:18;;;;;;;;;;;24.00;63.80;;;;;;8531729;27;20372;-50
2023/08/26 10:21:19;;;;;;;;;;;24.00;63.80;;;;;;8532758;27;20536;-53
2023/08/26 10:25:20;;;;;;;;;;;24.00;63.80;;;;;;8505437;27;19911;-50
2023/08/26 10:29:20;;;;;;;;;;;24.00;63.80;;;;;;8497727;27;19912;-53
2023/08/26 10:33:21;;;;;;;;;;;24.00;63.80;;;;;;8497728;27;19911;-50
2023/08/26 10:37:25;;;;;;;;;;;24.00;63.90;;;;;;8497474;27;20353;-51
2023/08/26 10:41:25;;;;;;;;;;;24.00;63.80;;;;;;8498071;27;20276;-50
2023/08/26 10:45:26;;;;;;;;;;;24.00;63.90;;;;;;8496522;27;19947;-52
2023/08/26 10:49:29;;;;;;;;;;;24.00;63.80;;;;;;8497838;27;19919;-51
2023/08/26 10:53:42;;;;;;;;;;;24.00;63.80;;;;;;8496477;27;19963;-51
2023/08/26 10:58:00;;;;;;;;;;;23.90;63.70;;;;;;8497889;27;19912;-51
2023/08/26 11:02:00;;;;;;;;;;;24.00;63.80;;;;;;8509385;27;19911;-52
2023/08/26 11:06:02;;;;;;;;;;;24.00;63.70;;;;;;8496150;27;19923;-51
2023/08/26 11:10:03;;;;;;;;;;;24.00;63.70;;;;;;8497260;28;19923;-51
2023/08/26 11:14:03;;;;;;;;;;;24.00;63.70;;;;;;8496191;28;19915;-50
2023/08/26 11:18:05;;;;;;;;;;;24.00;63.60;;;;;;8461827;28;20292;-50
2023/08/26 11:22:06;;;;;;;;;;;24.00;63.60;;;;;;8461816;28;20360;-52
2023/08/26 11:26:07;;;;;;;;;;;23.90;63.50;;;;;;8470011;27;20002;-51
2023/08/26 11:30:09;;;;;;;;;;;24.00;63.50;;;;;;8467730;28;20388;-52
2023/08/26 11:34:09;;;;;;;;;;;24.00;63.60;;;;;;8470721;28;19972;-52
2023/08/26 11:38:10;;;;;;;;;;;23.90;63.50;;;;;;8469341;28;19912;-50
2023/08/26 11:42:11;;;;;;;;;;;24.00;63.60;;;;;;8468940;28;19912;-52
2023/08/26 11:46:13;;;;;;;;;;;23.90;63.50;;;;;;8469564;28;20396;-51
2023/08/26 11:50:15;;;;;;;;;;;23.90;63.60;;;;;;8468251;28;19912;-51
2023/08/26 11:54:23;;;;;;;;;;;23.90;64.40;;;;;;8469141;28;20006;-53
2023/08/26 11:58:25;;;;;;;;;;;23.90;63.60;;;;;;8467873;28;19965;-51
2023/08/26 12:02:26;;;;;;;;;;;23.90;63.50;;;;;;8468950;28;20207;-50
2023/08/26 12:06:26;;;;;;;;;;;23.90;63.50;;;;;;8467513;28;20403;-51
2023/08/26 12:10:28;;;;;;;;;;;23.90;63.50;;;;;;8468164;28;19950;-51
2023/08/26 12:14:29;;;;;;;;;;;24.00;63.60;;;;;;8466913;28;19914;-52
2023/08/26 12:18:30;;;;;;;;;;;23.90;63.60;;;;;;8487530;28;19931;-50
2023/08/26 12:22:30;;;;;;;;;;;23.90;63.60;;;;;;8500527;28;19919;-51
2023/08/26 12:26:31;;;;;;;;;;;24.00;63.60;;;;;;8499596;27;20407;-51
2023/08/26 12:30:31;;;;;;;;;;;23.90;63.60;;;;;;8500210;28;19918;-51
2023/08/26 12:34:32;;;;;;;;;;;23.90;63.60;;;;;;8514341;27;19912;-52
2023/08/26 12:38:33;;;;;;;;;;;23.90;63.50;;;;;;8499924;28;19922;-51
2023/08/26 12:42:33;;;;;;;;;;;23.90;63.60;;;;;;8498597;28;19981;-52
2023/08/26 12:46:34;;;;;;;;;;;23.90;63.50;;;;;;8499146;28;19915;-52
2023/08/26 12:50:35;;;;;;;;;;;23.90;63.60;;;;;;8498374;28;19917;-49
2023/08/26 12:54:35;;;;;;;;;;;23.90;63.50;;;;;;8498315;27;19923;-52
2023/08/26 12:58:36;;;;;;;;;;;23.90;63.50;;;;;;8498367;28;19923;-51
2023/08/26 13:02:38;;;;;;;;;;;23.90;63.60;;;;;;8499331;28;19917;-52
2023/08/26 13:06:38;;;;;;;;;;;23.90;63.60;;;;;;8499076;28;19911;-50
2023/08/26 13:10:39;;;;;;;;;;;23.90;63.60;;;;;;8497649;28;19918;-52
2023/08/26 13:14:39;;;;;;;;;;;23.90;63.60;;;;;;8499105;28;20395;-51
2023/08/26 13:18:42;;;;;;;;;;;23.90;63.70;;;;;;8432354;27;1845336;-52
2023/08/26 13:22:43;;;;;;;;;;;23.90;63.60;;;;;;8500810;27;19916;-51
2023/08/26 13:26:44;;;;;;;;;;;23.90;64.40;;;;;;8499415;27;19976;-52
2023/08/26 13:30:46;;;;;;;;;;;23.90;63.60;;;;;;8501161;27;19915;-53
2023/08/26 13:34:47;;;;;;;;;;;23.90;63.50;;;;;;8499329;27;19953;-52
2023/08/26 13:38:47;;;;;;;;;;;23.90;63.60;;;;;;8499281;27;19957;-51
2023/08/26 13:42:50;;;;;;;;;;;23.90;63.60;;;;;;8499609;27;20374;-50
2023/08/26 13:46:50;;;;;;;;;;;23.90;63.60;;;;;;8497439;27;19915;-50
2023/08/26 13:50:51;;;;;;;;;;;23.90;63.50;;;;;;8499446;27;19912;-51
2023/08/26 13:54:51;;;;;;;;;;;23.90;63.50;;;;;;8498236;27;19962;-52
2023/08/26 13:58:52;;;;;;;;;;;23.90;63.60;;;;;;8499085;27;19918;-51
2023/08/26 14:02:52;;;;;;;;;;;23.90;63.60;;;;;;8497742;27;20380;-51
2023/08/26 14:06:53;;;;;;;;;;;23.90;63.50;;;;;;8499077;27;20372;-50
2023/08/26 14:10:53;;;;;;;;;;;23.90;63.50;;;;;;8497658;27;20296;-49
2023/08/26 14:14:54;;;;;;;;;;;23.90;63.60;;;;;;8498766;27;19911;-52
2023/08/26 14:18:55;;;;;;;;;;;23.90;63.60;;;;;;8498460;27;19924;-52
2023/08/26 14:22:55;;;;;;;;;;;23.90;63.60;;;;;;8497909;27;19922;-51
2023/08/26 14:26:56;;;;;;;;;;;23.90;63.60;;;;;;8498550;27;19916;-51
2023/08/26 14:30:56;;;;;;;;;;;23.90;63.60;;;;;;8478843;27;20395;-50
2023/08/26 14:34:57;;;;;;;;;;;23.90;63.50;;;;;;8498557;27;19911;-50
2023/08/26 14:39:01;;;;;;;;;;;23.90;63.60;;;;;;8496770;27;20364;-52
2023/08/26 14:43:01;;;;;;;;;;;23.90;63.60;;;;;;8513672;27;19911;-52
2023/08/26 14:47:02;;;;;;;;;;;23.90;63.60;;;;;;8496544;27;20390;-52
2023/08/26 14:51:05;;;;;;;;;;;23.90;63.60;;;;;;8497897;27;20002;-51
2023/08/26 14:55:06;;;;;;;;;;;23.90;63.60;;;;;;8497570;27;19912;-51
2023/08/26 14:59:06;;;;;;;;;;;23.90;63.60;;;;;;8496963;27;20008;-51
2023/08/26 15:03:07;;;;;;;;;;;23.90;63.60;;;;;;8497303;27;19937;-51
2023/08/26 15:07:10;;;;;;;;;;;23.90;63.60;;;;;;8512917;27;19915;-51
2023/08/26 15:11:10;;;;;;;;;;;23.90;63.60;;;;;;8497466;28;19911;-50
2023/08/26 15:15:11;;;;;;;;;;;23.90;63.60;;;;;;8496237;28;19912;-50
2023/08/26 15:19:11;;;;;;;;;;;23.90;63.60;;;;;;8497844;28;19931;-50
2023/08/26 15:23:13;;;;;;;;;;;23.90;63.60;;;;;;8496026;28;20383;-52
2023/08/26 15:27:14;;;;;;;;;;;23.90;63.60;;;;;;8497726;27;19921;-51
2023/08/26 15:31:14;;;;;;;;;;;23.90;63.60;;;;;;8496091;28;19912;-51
2023/08/26 15:35:15;;;;;;;;;;;23.90;63.60;;;;;;8497684;28;19917;-53
2023/08/26 15:39:15;;;;;;;;;;;23.90;63.60;;;;;;8496719;28;20403;-51
2023/08/26 15:43:16;;;;;;;;;;;23.90;63.60;;;;;;8497083;28;19907;-50
2023/08/26 15:47:16;;;;;;;;;;;23.90;63.70;;;;;;8512923;27;20043;-51
2023/08/26 15:51:17;;;;;;;;;;;23.90;63.60;;;;;;8496759;28;19955;-51
2023/08/26 15:55:18;;;;;;;;;;;23.90;63.60;;;;;;8497208;27;19991;-50
2023/08/26 15:59:18;;;;;;;;;;;23.90;63.60;;;;;;8495640;28;19912;-52
2023/08/26 16:03:19;;;;;;;;;;;23.90;63.60;;;;;;8496941;28;19912;-52
2023/08/26 16:07:20;;;;;;;;;;;23.90;63.60;;;;;;8495245;28;20736;-52
2023/08/26 16:11:21;;;;;;;;;;;23.90;63.60;;;;;;8501655;27;19912;-52
2023/08/26 16:15:21;;;;;;;;;;;23.90;63.60;;;;;;8501581;27;19907;-52
2023/08/26 16:19:22;;;;;;;;;;;23.90;63.60;;;;;;8502368;27;20406;-52
2023/08/26 16:23:23;;;;;;;;;;;23.90;63.70;;;;;;8501767;27;19922;-52
2023/08/26 16:27:23;;;;;;;;;;;23.90;63.60;;;;;;8501925;27;20372;-52
2023/08/26 16:31:24;;;;;;;;;;;23.90;63.70;;;;;;8502139;27;19919;-49
2023/08/26 16:35:24;;;;;;;;;;;23.90;63.60;;;;;;8500875;27;19918;-50
2023/08/26 16:39:25;;;;;;;;;;;23.90;63.70;;;;;;8501822;27;19907;-52
2023/08/26 16:43:25;;;;;;;;;;;23.90;63.60;;;;;;8500391;27;19951;-52
2023/08/26 16:47:26;;;;;;;;;;;23.90;63.60;;;;;;8501688;27;19923;-52
2023/08/26 16:51:27;;;;;;;;;;;23.90;63.70;;;;;;8500994;27;19914;-51
2023/08/26 16:55:27;;;;;;;;;;;23.90;63.70;;;;;;8501798;27;19933;-50
2023/08/26 16:59:28;;;;;;;;;;;23.90;63.70;;;;;;8500327;27;20567;-51
2023/08/26 17:03:28;;;;;;;;;;;23.90;63.80;;;;;;8501294;27;20273;-52
2023/08/26 17:07:30;;;;;;;;;;;23.90;63.70;;;;;;8500271;27;19911;-50
2023/08/26 17:11:31;;;;;;;;;;;23.80;63.60;;;;;;8499940;27;19912;-51
2023/08/26 17:15:31;;;;;;;;;;;23.90;63.70;;;;;;8500141;27;19912;-52
2023/08/26 17:19:32;;;;;;;;;;;23.90;63.70;;;;;;8498626;27;20017;-49
2023/08/26 17:23:32;;;;;;;;;;;23.80;63.60;;;;;;8498658;27;20384;-51
2023/08/26 17:27:35;;;;;;;;;;;23.90;63.70;;;;;;8499795;27;20352;-51
2023/08/26 17:31:35;;;;;;;;;;;23.90;63.70;;;;;;8500490;27;19918;-52
2023/08/26 17:35:37;;;;;;;;;;;23.80;63.60;;;;;;8498864;27;19911;-51
2023/08/26 17:39:37;;;;;;;;;;;23.80;63.60;;;;;;8500036;27;19914;-50
2023/08/26 17:43:38;;;;;;;;;;;23.90;63.70;;;;;;8498798;27;19908;-52
2023/08/26 17:47:38;;;;;;;;;;;23.80;63.70;;;;;;8499601;27;19915;-51
2023/08/26 17:51:39;;;;;;;;;;;23.90;63.60;;;;;;8498699;27;19956;-49
2023/08/26 17:55:40;;;;;;;;;;;23.90;63.60;;;;;;8498657;27;19913;-50
2023/08/26 17:59:40;;;;;;;;;;;23.90;63.60;;;;;;8497948;27;19945;-52
2023/08/26 18:03:41;;;;;;;;;;;23.80;63.60;;;;;;8498247;27;19912;-52
2023/08/26 18:07:41;;;;;;;;;;;23.80;63.70;;;;;;8499770;27;19925;-52
2023/08/26 18:11:42;;;;;;;;;;;23.80;63.60;;;;;;8497706;27;20388;-51
2023/08/26 18:15:43;;;;;;;;;;;23.80;63.70;;;;;;8498886;27;19951;-50
2023/08/26 18:19:43;;;;;;;;;;;23.80;63.70;;;;;;8497259;27;19927;-51
2023/08/26 18:23:44;;;;;;;;;;;23.80;63.60;;;;;;8498563;27;19912;-51
2023/08/26 18:27:44;;;;;;;;;;;23.80;63.60;;;;;;8497429;27;19915;-52
2023/08/26 18:31:46;;;;;;;;;;;23.80;63.60;;;;;;8498740;27;19911;-49
2023/08/26 18:35:47;;;;;;;;;;;23.80;63.60;;;;;;8479024;27;19971;-51
2023/08/26 18:39:47;;;;;;;;;;;23.80;63.50;;;;;;8497961;27;19907;-50
2023/08/26 18:43:48;;;;;;;;;;;23.90;63.60;;;;;;8498011;27;19911;-50
2023/08/26 18:47:48;;;;;;;;;;;23.80;63.50;;;;;;8496536;27;19962;-52
2023/08/26 18:51:49;;;;;;;;;;;23.80;63.60;;;;;;8498041;27;20476;-52
2023/08/26 18:55:49;;;;;;;;;;;23.80;63.60;;;;;;8496524;27;19907;-51
2023/08/26 18:59:50;;;;;;;;;;;23.80;63.60;;;;;;8497339;27;19911;-50
2023/08/26 19:03:51;;;;;;;;;;;23.80;63.60;;;;;;8496194;27;20365;-51
2023/08/26 19:07:52;;;;;;;;;;;23.80;63.60;;;;;;8497851;27;19911;-51
2023/08/26 19:11:52;;;;;;;;;;;23.80;63.50;;;;;;8496396;28;20000;-50
2023/08/26 19:15:53;;;;;;;;;;;23.80;63.60;;;;;;8497093;28;20456;-52
2023/08/26 19:19:54;;;;;;;;;;;23.80;63.50;;;;;;8496532;28;20365;-50
2023/08/26 19:23:54;;;;;;;;;;;23.80;63.40;;;;;;8478151;28;19980;-52
2023/08/26 19:27:55;;;;;;;;;;;23.80;63.40;;;;;;8497144;27;20376;-52
2023/08/26 19:31:56;;;;;;;;;;;23.80;63.50;;;;;;8495870;28;19912;-52
2023/08/26 19:35:56;;;;;;;;;;;23.80;63.40;;;;;;8512927;27;19915;-52
2023/08/26 19:39:57;;;;;;;;;;;23.80;63.40;;;;;;8496155;28;19911;-51
2023/08/26 19:43:58;;;;;;;;;;;23.80;63.50;;;;;;8497962;27;20364;-52
2023/08/26 19:47:58;;;;;;;;;;;23.80;63.50;;;;;;8501950;27;19988;-54
2023/08/26 19:51:59;;;;;;;;;;;23.80;63.40;;;;;;8503417;27;20000;-51
2023/08/26 19:56:00;;;;;;;;;;;23.80;63.40;;;;;;8484223;27;19918;-51
2023/08/26 20:00:03;;;;;;;;;;;23.80;63.40;;;;;;8502467;27;20265;-51
2023/08/26 20:04:04;;;;;;;;;;;23.80;63.40;;;;;;8514065;27;19918;-51
2023/08/26 20:08:04;;;;;;;;;;;23.80;63.30;;;;;;8501815;27;19915;-51
2023/08/26 20:12:05;;;;;;;;;;;23.80;63.30;;;;;;8484391;27;19911;-52
2023/08/26 20:16:05;;;;;;;;;;;23.80;63.30;;;;;;8501056;27;19945;-52
2023/08/26 20:20:07;;;;;;;;;;;23.80;63.30;;;;;;8502565;27;19922;-50
2023/08/26 20:24:08;;;;;;;;;;;23.80;63.30;;;;;;8501016;27;19911;-51
2023/08/26 20:28:08;;;;;;;;;;;23.80;63.30;;;;;;8502540;27;19912;-50
2023/08/26 20:32:09;;;;;;;;;;;23.80;63.30;;;;;;8500950;27;19915;-51
2023/08/26 20:36:10;;;;;;;;;;;23.80;63.20;;;;;;8502019;27;20352;-51
2023/08/26 20:40:10;;;;;;;;;;;23.80;63.10;;;;;;8501284;27;20296;-52
2023/08/26 20:44:11;;;;;;;;;;;23.80;63.10;;;;;;8501073;27;19911;-50
2023/08/26 20:48:12;;;;;;;;;;;23.80;63.10;;;;;;8501513;27;19911;-51
2023/08/26 20:52:12;;;;;;;;;;;23.80;63.10;;;;;;8500414;27;19912;-50
2023/08/26 20:56:13;;;;;;;;;;;23.80;63.10;;;;;;8501618;27;19911;-52
2023/08/26 21:00:13;;;;;;;;;;;23.80;63.10;;;;;;8499883;27;19922;-52
2023/08/26 21:04:14;;;;;;;;;;;23.80;63.20;;;;;;8482687;27;20257;-51
2023/08/26 21:08:14;;;;;;;;;;;23.80;63.20;;;;;;8499699;27;19915;-50
2023/08/26 21:12:15;;;;;;;;;;;23.80;63.10;;;;;;8501729;27;19907;-52
2023/08/26 21:16:16;;;;;;;;;;;23.80;63.10;;;;;;8499843;27;19999;-51
2023/08/26 21:20:16;;;;;;;;;;;23.80;63.10;;;;;;8500767;27;19911;-51
2023/08/26 21:24:17;;;;;;;;;;;23.80;63.10;;;;;;8500082;27;19911;-52
2023/08/26 21:28:17;;;;;;;;;;;23.80;63.10;;;;;;8500404;27;19920;-51
2023/08/26 21:32:18;;;;;;;;;;;23.80;63.10;;;;;;8500711;27;19937;-52
2023/08/26 21:36:21;;;;;;;;;;;23.80;63.00;;;;;;8480859;27;19933;-50
2023/08/26 21:40:22;;;;;;;;;;;23.80;62.90;;;;;;8500001;27;19979;-53
2023/08/26 21:44:22;;;;;;;;;;;23.80;62.90;;;;;;8498760;27;19911;-51
2023/08/26 21:48:23;;;;;;;;;;;23.80;62.90;;;;;;8500592;27;20404;-51
2023/08/26 21:52:23;;;;;;;;;;;23.80;62.80;;;;;;8498496;27;19954;-49
2023/08/26 21:56:24;;;;;;;;;;;23.80;62.90;;;;;;8499762;27;19915;-50
2023/08/26 22:00:24;;;;;;;;;;;23.80;63.00;;;;;;8497986;27;19918;-51
2023/08/26 22:04:27;;;;;;;;;;;23.70;63.00;;;;;;8500139;27;19934;-52
2023/08/26 22:08:27;;;;;;;;;;;23.70;63.00;;;;;;8497861;27;19931;-53
2023/08/26 22:12:28;;;;;;;;;;;23.70;63.00;;;;;;8498378;27;20043;-51
2023/08/26 22:16:28;;;;;;;;;;;23.70;63.00;;;;;;8498727;27;20368;-52
2023/08/26 22:20:29;;;;;;;;;;;23.70;62.90;;;;;;8497202;27;20457;-51
2023/08/26 22:24:29;;;;;;;;;;;23.70;62.90;;;;;;8498381;27;19907;-52
2023/08/26 22:28:30;;;;;;;;;;;23.70;62.90;;;;;;8512771;27;19916;-52
2023/08/26 22:32:31;;;;;;;;;;;23.70;62.80;;;;;;8497924;27;19911;-51
2023/08/26 22:36:32;;;;;;;;;;;23.70;62.80;;;;;;8513607;27;20376;-53
2023/08/26 22:40:32;;;;;;;;;;;23.80;62.90;;;;;;8499774;27;19918;-52
2023/08/26 22:44:33;;;;;;;;;;;23.80;62.90;;;;;;8496721;27;19916;-50
2023/08/26 22:48:34;;;;;;;;;;;23.70;62.70;;;;;;8498071;27;19926;-50
2023/08/26 22:52:34;;;;;;;;;;;23.70;62.80;;;;;;8497332;27;19912;-50
2023/08/26 22:56:35;;;;;;;;;;;23.70;62.80;;;;;;8497422;27;20390;-51
2023/08/26 23:00:36;;;;;;;;;;;23.80;62.90;;;;;;8497501;27;19912;-53
2023/08/26 23:04:37;;;;;;;;;;;23.80;62.90;;;;;;8496343;27;19911;-52
2023/08/26 23:08:38;;;;;;;;;;;23.70;62.80;;;;;;8496695;27;19926;-50
2023/08/26 23:12:38;;;;;;;;;;;23.70;62.80;;;;;;8495897;27;19949;-51
2023/08/26 23:16:39;;;;;;;;;;;23.70;62.80;;;;;;8497701;28;19926;-50
2023/08/26 23:20:39;;;;;;;;;;;23.70;62.90;;;;;;8502084;27;20010;-52